Imnaha, Oregon
Current Conditions -  °F | °C
As of 2:55 PM on Saturday 25 Oct 2014 (Local Time) from KGIC Reporting Station
Clear Clear  
Wind Chill: 71°   Ceiling: Unl
Heat Index: 71°   Visibility: 10mi
Dew Point: 28°   Wind: 31mph
Humidity: 21%   Direction: 200°SSW
Pressure: 29.67"   Gusts: 44mph
Location:  45.56°N, 116.83°W
Report Text: KGIC 252155Z AUTO 20027G38KT 10SM CLR 22/M02 A2967 RMK AO1 T02161020
Loading
Personal Weather Stations






























Interactive Weather Map
Tropical Storm Tracking
New forecast layout! Learn more

10-Day Weather Forecast

Advertisements
Track Severe Weather on mobile